Time;durP1;ratioP1;P1;durP2;ratioP2;P2;SDS_P1;SDS_P2;PMS_P1;PMS_P2;Temp;Humidity;BMP_temperature;BMP_pressure;BME280_temperature;BME280_humidity;BME280_pressure;Samples;Min_cycle;Max_cycle;Signal;HPM_P1;HPM_P2
2024/01/18 00:01:14;;;;;;;26.87;18.77;;;;;;;;;;5087938;28;20886;-77
2024/01/18 00:03:42;;;;;;;29.30;19.00;;;;;;;;;;5088454;28;20477;-78
2024/01/18 00:06:09;;;;;;;25.90;19.30;;;;;;;;;;5087996;28;20494;-77
2024/01/18 00:08:36;;;;;;;25.10;19.87;;;;;;;;;;5088459;28;20439;-77
2024/01/18 00:11:02;;;;;;;25.23;20.10;;;;;;;;;;5088480;28;20542;-77
2024/01/18 00:13:29;;;;;;;30.40;20.20;;;;;;;;;;5088472;28;20438;-78
2024/01/18 00:15:56;;;;;;;31.67;20.83;;;;;;;;;;5087189;28;20474;-77
2024/01/18 00:18:22;;;;;;;28.10;18.90;;;;;;;;;;5088805;28;20474;-77
2024/01/18 00:20:51;;;;;;;29.53;20.70;;;;;;;;;;5088360;28;20494;-77
2024/01/18 00:23:19;;;;;;;30.80;19.23;;;;;;;;;;5087640;28;20521;-77
2024/01/18 00:25:46;;;;;;;32.63;20.57;;;;;;;;;;5088720;28;20482;-78
2024/01/18 00:28:12;;;;;;;28.73;20.20;;;;;;;;;;5088977;28;20479;-78
2024/01/18 00:30:39;;;;;;;24.20;17.83;;;;;;;;;;5087799;28;20502;-77
2024/01/18 00:33:05;;;;;;;25.73;19.33;;;;;;;;;;5088395;28;20451;-77
2024/01/18 00:35:32;;;;;;;27.60;20.60;;;;;;;;;;5088561;28;20475;-78
2024/01/18 00:38:00;;;;;;;28.57;21.73;;;;;;;;;;5088026;28;20462;-77
2024/01/18 00:40:26;;;;;;;29.87;20.20;;;;;;;;;;5087944;28;20475;-77
2024/01/18 00:42:53;;;;;;;31.67;20.60;;;;;;;;;;5087410;28;20905;-78
2024/01/18 00:45:20;;;;;;;30.50;21.00;;;;;;;;;;5088144;28;20517;-77
2024/01/18 00:47:46;;;;;;;24.17;19.33;;;;;;;;;;5088321;28;20463;-78
2024/01/18 00:50:13;;;;;;;30.37;20.40;;;;;;;;;;5087176;28;20503;-77
2024/01/18 00:52:40;;;;;;;35.70;21.60;;;;;;;;;;5088134;28;20457;-78
2024/01/18 00:55:09;;;;;;;29.00;21.30;;;;;;;;;;5086707;28;20565;-77
2024/01/18 00:57:36;;;;;;;28.70;17.53;;;;;;;;;;5088279;28;20515;-78
2024/01/18 01:00:03;;;;;;;34.90;21.20;;;;;;;;;;5087169;28;20554;-78
2024/01/18 01:02:30;;;;;;;28.70;20.00;;;;;;;;;;5088171;28;20447;-77
2024/01/18 01:04:56;;;;;;;27.17;20.30;;;;;;;;;;5087788;28;20885;-78
2024/01/18 01:07:23;;;;;;;27.50;22.20;;;;;;;;;;5088277;28;20478;-78
2024/01/18 01:09:50;;;;;;;29.90;22.20;;;;;;;;;;5088239;28;20518;-77
2024/01/18 01:12:20;;;;;;;29.70;21.70;;;;;;;;;;5087398;28;20518;-77
2024/01/18 01:14:46;;;;;;;27.70;20.90;;;;;;;;;;5087582;28;20497;-77
2024/01/18 01:17:13;;;;;;;32.40;22.40;;;;;;;;;;5087403;28;20463;-77
2024/01/18 01:19:39;;;;;;;29.47;24.33;;;;;;;;;;5086230;28;20474;-77
2024/01/18 01:22:06;;;;;;;28.67;20.50;;;;;;;;;;5087104;28;20530;-78
2024/01/18 01:24:38;;;;;;;26.10;21.60;;;;;;;;;;5087640;28;20554;-77
2024/01/18 01:27:04;;;;;;;31.40;21.83;;;;;;;;;;5087183;28;20502;-78
2024/01/18 01:29:32;;;;;;;29.53;20.67;;;;;;;;;;5086758;28;20508;-78
2024/01/18 01:31:59;;;;;;;25.23;20.30;;;;;;;;;;5087466;28;20574;-78
2024/01/18 01:34:25;;;;;;;39.97;22.80;;;;;;;;;;5086285;28;20474;-78
2024/01/18 01:36:52;;;;;;;28.07;21.80;;;;;;;;;;5086769;28;21024;-77
2024/01/18 01:39:19;;;;;;;31.33;21.37;;;;;;;;;;5087023;28;20859;-77
2024/01/18 01:41:46;;;;;;;30.50;20.40;;;;;;;;;;5087618;28;20474;-77
2024/01/18 01:44:12;;;;;;;30.80;20.73;;;;;;;;;;5088193;28;20470;-78
2024/01/18 01:46:40;;;;;;;24.80;20.40;;;;;;;;;;5086133;28;20522;-77
2024/01/18 01:49:07;;;;;;;32.83;21.30;;;;;;;;;;5087125;28;20491;-78
2024/01/18 01:51:35;;;;;;;30.90;22.20;;;;;;;;;;5087836;28;20486;-77
2024/01/18 01:54:02;;;;;;;32.60;23.30;;;;;;;;;;5088188;28;20466;-78
2024/01/18 01:56:29;;;;;;;31.87;22.60;;;;;;;;;;5087666;28;20471;-77
2024/01/18 01:58:57;;;;;;;31.63;21.27;;;;;;;;;;5088713;28;20510;-78
2024/01/18 02:01:25;;;;;;;29.70;21.57;;;;;;;;;;5087126;28;20911;-77
2024/01/18 02:03:53;;;;;;;29.73;19.93;;;;;;;;;;5088188;28;20438;-77
2024/01/18 02:06:19;;;;;;;26.13;20.10;;;;;;;;;;5087627;28;20534;-78
2024/01/18 02:08:46;;;;;;;31.87;20.67;;;;;;;;;;5088471;28;20474;-77
2024/01/18 02:11:13;;;;;;;27.07;19.83;;;;;;;;;;5083545;28;20466;-76
2024/01/18 02:13:41;;;;;;;24.20;19.53;;;;;;;;;;5088499;28;20482;-77
2024/01/18 02:16:07;;;;;;;25.77;18.67;;;;;;;;;;5088141;28;20487;-77
2024/01/18 02:18:35;;;;;;;26.77;18.67;;;;;;;;;;5089126;28;20474;-77
2024/01/18 02:21:07;;;;;;;20.53;16.13;;;;;;;;;;5086966;28;20491;-77
2024/01/18 02:23:34;;;;;;;23.30;19.10;;;;;;;;;;5089280;28;20522;-76
2024/01/18 02:26:02;;;;;;;21.43;17.90;;;;;;;;;;5086655;28;20497;-77
2024/01/18 02:28:28;;;;;;;27.10;20.30;;;;;;;;;;5089053;28;20443;-77
2024/01/18 02:30:55;;;;;;;28.13;17.97;;;;;;;;;;5089089;28;20530;-77
2024/01/18 02:33:22;;;;;;;24.50;17.30;;;;;;;;;;5090226;28;20458;-77
2024/01/18 02:35:49;;;;;;;24.90;18.50;;;;;;;;;;5089454;28;20499;-78
2024/01/18 02:38:16;;;;;;;22.03;17.20;;;;;;;;;;5090645;28;20465;-77
2024/01/18 02:40:43;;;;;;;28.30;17.97;;;;;;;;;;5089600;28;20554;-77
2024/01/18 02:43:11;;;;;;;26.47;18.07;;;;;;;;;;5089087;28;20445;-77
2024/01/18 02:45:38;;;;;;;27.70;19.27;;;;;;;;;;5088971;28;20482;-78
2024/01/18 02:48:05;;;;;;;19.50;16.50;;;;;;;;;;5089089;28;20439;-77
2024/01/18 02:50:31;;;;;;;24.63;18.77;;;;;;;;;;5089925;28;20498;-77
2024/01/18 02:52:58;;;;;;;26.80;19.30;;;;;;;;;;5090906;28;20466;-76
2024/01/18 02:55:24;;;;;;;24.87;17.63;;;;;;;;;;5088875;28;20554;-77
2024/01/18 02:57:53;;;;;;;20.50;16.93;;;;;;;;;;5090006;28;20443;-76
2024/01/18 03:00:21;;;;;;;27.20;16.47;;;;;;;;;;5090144;28;20489;-77
2024/01/18 03:02:48;;;;;;;22.77;16.77;;;;;;;;;;5094932;28;20470;-76
2024/01/18 03:05:14;;;;;;;25.53;17.93;;;;;;;;;;5093173;28;20494;-77
2024/01/18 03:07:42;;;;;;;21.03;17.37;;;;;;;;;;5094429;28;20467;-76
2024/01/18 03:10:09;;;;;;;22.00;17.53;;;;;;;;;;5093637;28;20486;-76
2024/01/18 03:12:37;;;;;;;22.67;18.83;;;;;;;;;;5094473;28;20442;-77
2024/01/18 03:15:04;;;;;;;25.10;17.67;;;;;;;;;;5094006;28;20522;-77
2024/01/18 03:17:33;;;;;;;22.80;17.37;;;;;;;;;;5094140;28;20447;-77
2024/01/18 03:19:59;;;;;;;23.40;17.70;;;;;;;;;;5094010;28;20479;-76
2024/01/18 03:22:26;;;;;;;21.53;16.10;;;;;;;;;;5094661;28;20470;-77
2024/01/18 03:24:52;;;;;;;25.53;19.53;;;;;;;;;;5093706;28;20494;-77
2024/01/18 03:27:20;;;;;;;21.93;18.10;;;;;;;;;;5093560;28;20514;-77
2024/01/18 03:29:47;;;;;;;25.63;18.13;;;;;;;;;;5092638;28;20462;-77
2024/01/18 03:32:13;;;;;;;25.20;18.40;;;;;;;;;;5093174;28;20447;-77
2024/01/18 03:34:41;;;;;;;29.20;18.90;;;;;;;;;;5092629;28;20495;-77
2024/01/18 03:37:08;;;;;;;26.13;17.10;;;;;;;;;;5093677;28;20467;-77
2024/01/18 03:39:35;;;;;;;28.43;19.37;;;;;;;;;;5093912;28;20458;-77
2024/01/18 03:42:02;;;;;;;21.20;16.07;;;;;;;;;;5092952;28;20439;-77
2024/01/18 03:44:29;;;;;;;26.33;16.00;;;;;;;;;;5092560;28;20463;-77
2024/01/18 03:46:55;;;;;;;23.50;17.07;;;;;;;;;;5092699;28;20562;-77
2024/01/18 03:49:21;;;;;;;25.90;20.10;;;;;;;;;;5093007;28;20458;-77
2024/01/18 03:51:51;;;;;;;24.73;17.60;;;;;;;;;;5092501;28;20494;-77
2024/01/18 03:54:18;;;;;;;21.93;16.40;;;;;;;;;;5093161;28;20576;-76
2024/01/18 03:56:44;;;;;;;21.73;16.10;;;;;;;;;;5092521;28;20493;-77
2024/01/18 03:59:14;;;;;;;20.23;16.50;;;;;;;;;;5092223;28;20490;-77
2024/01/18 04:01:40;;;;;;;26.47;14.40;;;;;;;;;;5092639;28;20497;-76
2024/01/18 04:04:07;;;;;;;20.83;16.07;;;;;;;;;;5092215;28;20470;-77
2024/01/18 04:06:33;;;;;;;27.73;18.13;;;;;;;;;;5091039;28;20530;-77
2024/01/18 04:09:01;;;;;;;30.57;18.63;;;;;;;;;;5092887;28;20435;-77
2024/01/18 04:11:28;;;;;;;28.63;18.27;;;;;;;;;;5091922;28;20471;-76
2024/01/18 04:13:54;;;;;;;26.93;19.10;;;;;;;;;;5091332;28;20459;-76
2024/01/18 04:16:21;;;;;;;27.40;18.57;;;;;;;;;;5090441;28;20530;-77
2024/01/18 04:18:47;;;;;;;26.67;19.30;;;;;;;;;;5091873;28;20459;-77
2024/01/18 04:21:15;;;;;;;26.40;17.83;;;;;;;;;;5091598;28;20502;-76
2024/01/18 04:23:41;;;;;;;24.90;19.03;;;;;;;;;;5092628;28;20462;-77
2024/01/18 04:26:09;;;;;;;24.70;19.70;;;;;;;;;;5091452;28;20474;-76
2024/01/18 04:28:35;;;;;;;25.20;17.53;;;;;;;;;;5091497;28;20470;-76
2024/01/18 04:31:03;;;;;;;19.97;16.50;;;;;;;;;;5092029;28;20499;-76
2024/01/18 04:33:29;;;;;;;23.20;18.30;;;;;;;;;;5090410;28;20454;-77
2024/01/18 04:35:56;;;;;;;18.97;15.80;;;;;;;;;;5091361;28;20497;-77
2024/01/18 04:38:23;;;;;;;21.90;17.70;;;;;;;;;;5090886;28;20478;-77
2024/01/18 04:40:50;;;;;;;22.93;17.30;;;;;;;;;;5090341;28;21019;-77
2024/01/18 04:43:18;;;;;;;22.57;17.73;;;;;;;;;;5092283;28;20443;-76
2024/01/18 04:45:47;;;;;;;25.20;17.10;;;;;;;;;;5090694;28;20534;-77
2024/01/18 04:48:14;;;;;;;19.37;15.60;;;;;;;;;;5091351;28;20439;-76
2024/01/18 04:50:40;;;;;;;23.30;17.07;;;;;;;;;;5091162;28;20486;-77
2024/01/18 04:53:07;;;;;;;23.60;16.10;;;;;;;;;;5091059;28;20462;-77
2024/01/18 04:55:33;;;;;;;23.20;16.97;;;;;;;;;;5090239;28;20571;-77
2024/01/18 04:58:00;;;;;;;22.37;16.53;;;;;;;;;;5091371;28;21020;-77
2024/01/18 05:00:29;;;;;;;27.10;17.10;;;;;;;;;;5090229;28;20494;-77
2024/01/18 05:02:55;;;;;;;23.07;16.00;;;;;;;;;;5089763;28;20453;-76
2024/01/18 05:05:23;;;;;;;21.40;16.70;;;;;;;;;;5090630;28;20485;-77
2024/01/18 05:07:50;;;;;;;24.60;16.20;;;;;;;;;;5090111;28;20471;-77
2024/01/18 05:10:16;;;;;;;21.10;15.50;;;;;;;;;;5089695;28;20463;-77
2024/01/18 05:12:44;;;;;;;27.40;16.00;;;;;;;;;;5090310;28;20964;-77
2024/01/18 05:15:11;;;;;;;20.70;16.20;;;;;;;;;;5089120;28;20575;-77
2024/01/18 05:17:41;;;;;;;25.80;17.30;;;;;;;;;;5090745;28;20443;-77
2024/01/18 05:20:08;;;;;;;22.03;16.60;;;;;;;;;;5089945;28;20841;-77
2024/01/18 05:22:35;;;;;;;19.57;15.97;;;;;;;;;;5090609;28;20480;-77
2024/01/18 05:25:02;;;;;;;20.87;15.97;;;;;;;;;;5089874;28;20497;-77
2024/01/18 05:27:29;;;;;;;28.00;17.43;;;;;;;;;;5089962;28;20486;-77
2024/01/18 05:29:57;;;;;;;23.13;17.30;;;;;;;;;;5088984;28;20466;-76
2024/01/18 05:32:23;;;;;;;21.90;14.97;;;;;;;;;;5089328;28;21109;-77
2024/01/18 05:34:51;;;;;;;20.00;16.17;;;;;;;;;;5088364;28;20532;-78
2024/01/18 05:37:18;;;;;;;21.67;15.17;;;;;;;;;;5089842;28;20474;-77
2024/01/18 05:39:45;;;;;;;21.90;17.17;;;;;;;;;;5089059;28;20506;-77
2024/01/18 05:42:11;;;;;;;21.70;14.77;;;;;;;;;;5089705;28;20514;-77
2024/01/18 05:44:38;;;;;;;24.03;17.27;;;;;;;;;;5089079;28;20489;-77
2024/01/18 05:47:04;;;;;;;24.70;15.97;;;;;;;;;;5089697;28;20482;-76
2024/01/18 05:49:31;;;;;;;18.20;15.20;;;;;;;;;;5088471;28;20462;-77
2024/01/18 05:52:03;;;;;;;21.90;14.90;;;;;;;;;;5088848;28;20530;-77
2024/01/18 05:54:29;;;;;;;19.67;15.15;;;;;;;;;;5088937;28;20490;-77
2024/01/18 05:56:56;;;;;;;21.03;16.23;;;;;;;;;;5087470;28;20316;-77
2024/01/18 05:59:22;;;;;;;24.35;15.45;;;;;;;;;;5089256;28;20964;-77
2024/01/18 06:01:49;;;;;;;20.43;17.53;;;;;;;;;;5083622;28;20292;-77
2024/01/18 06:04:17;;;;;;;21.20;14.90;;;;;;;;;;5088235;28;20489;-77
2024/01/18 06:06:43;;;;;;;20.20;16.17;;;;;;;;;;5087996;28;20518;-77
2024/01/18 06:09:14;;;;;;;20.47;15.07;;;;;;;;;;5088525;28;20510;-76
2024/01/18 06:11:41;;;;;;;16.60;14.00;;;;;;;;;;5088174;28;20485;-77
2024/01/18 06:14:09;;;;;;;21.50;15.27;;;;;;;;;;5088207;28;20465;-77
2024/01/18 06:16:35;;;;;;;22.47;17.43;;;;;;;;;;5087758;28;20541;-77
2024/01/18 06:19:02;;;;;;;20.90;15.80;;;;;;;;;;5088539;28;20470;-77
2024/01/18 06:21:28;;;;;;;20.50;16.35;;;;;;;;;;5087246;28;20502;-77
2024/01/18 06:23:55;;;;;;;24.90;16.80;;;;;;;;;;5088464;28;20231;-76
2024/01/18 06:26:23;;;;;;;20.20;13.20;;;;;;;;;;5087169;28;20550;-77
2024/01/18 06:28:49;;;;;;;21.80;17.27;;;;;;;;;;5088202;28;20420;-76
2024/01/18 06:31:18;;;;;;;19.83;15.80;;;;;;;;;;5086434;28;20549;-77
2024/01/18 06:33:44;;;;;;;22.13;16.77;;;;;;;;;;5088609;28;20442;-77
2024/01/18 06:36:12;;;;;;;20.10;17.40;;;;;;;;;;5087049;28;20482;-78
2024/01/18 06:38:38;;;;;;;27.30;18.33;;;;;;;;;;5086412;28;20454;-76
2024/01/18 06:41:05;;;;;;;27.80;17.63;;;;;;;;;;5086710;28;20561;-76
2024/01/18 06:43:33;;;;;;;21.60;14.83;;;;;;;;;;5088200;28;20463;-76
2024/01/18 06:45:59;;;;;;;20.70;16.53;;;;;;;;;;5087473;28;20554;-77
2024/01/18 06:48:26;;;;;;;22.80;16.60;;;;;;;;;;5088248;28;20466;-76
2024/01/18 06:50:52;;;;;;;23.58;16.40;;;;;;;;;;5087231;28;20491;-76
2024/01/18 06:53:20;;;;;;;24.60;16.10;;;;;;;;;;5089161;28;20220;-75
2024/01/18 06:55:46;;;;;;;20.43;16.17;;;;;;;;;;5088173;28;20466;-75
2024/01/18 06:58:13;;;;;;;18.50;14.93;;;;;;;;;;5088703;28;20518;-75
2024/01/18 07:00:41;;;;;;;18.10;14.30;;;;;;;;;;5087500;28;20494;-76
2024/01/18 07:03:08;;;;;;;22.97;18.03;;;;;;;;;;5089369;28;20459;-75
2024/01/18 07:05:34;;;;;;;22.60;16.20;;;;;;;;;;5087781;28;20478;-76
2024/01/18 07:08:04;;;;;;;24.60;16.13;;;;;;;;;;5088620;28;20469;-76
2024/01/18 07:10:30;;;;;;;18.43;13.83;;;;;;;;;;5088188;28;20497;-76
2024/01/18 07:12:58;;;;;;;19.20;15.47;;;;;;;;;;5088880;28;20442;-76
2024/01/18 07:15:25;;;;;;;25.40;16.30;;;;;;;;;;5088263;28;20499;-77
2024/01/18 07:17:53;;;;;;;25.17;16.70;;;;;;;;;;5088057;28;20477;-76
2024/01/18 07:20:19;;;;;;;24.80;16.63;;;;;;;;;;5088152;28;20467;-76
2024/01/18 07:22:46;;;;;;;25.50;16.37;;;;;;;;;;5089016;28;20541;-76
2024/01/18 07:25:12;;;;;;;18.33;16.40;;;;;;;;;;5088400;28;20920;-76
2024/01/18 07:27:39;;;;;;;22.63;15.77;;;;;;;;;;5088443;28;20458;-76
2024/01/18 07:30:06;;;;;;;21.10;15.37;;;;;;;;;;5086949;28;20469;-76
2024/01/18 07:32:33;;;;;;;20.25;15.23;;;;;;;;;;5089225;28;20443;-76
2024/01/18 07:35:03;;;;;;;19.27;15.35;;;;;;;;;;5088715;28;20229;-76
2024/01/18 07:37:30;;;;;;;18.30;13.83;;;;;;;;;;5089051;28;20188;-76
2024/01/18 07:39:58;;;;;;;20.23;14.47;;;;;;;;;;5088217;28;20455;-75
2024/01/18 07:42:25;;;;;;;24.48;17.38;;;;;;;;;;5088588;28;20492;-76
2024/01/18 07:44:52;;;;;;;21.05;15.68;;;;;;;;;;5087951;28;20288;-75
2024/01/18 07:47:18;;;;;;;22.13;15.00;;;;;;;;;;5088752;28;20283;-76
2024/01/18 07:49:46;;;;;;;19.33;14.27;;;;;;;;;;5092213;28;20446;-76
2024/01/18 07:52:14;;;;;;;22.20;16.35;;;;;;;;;;5092686;28;20230;-75
2024/01/18 07:54:40;;;;;;;23.52;16.50;;;;;;;;;;5092440;28;20217;-76
2024/01/18 07:57:08;;;;;;;27.60;16.33;;;;;;;;;;5092767;28;20200;-76
2024/01/18 07:59:36;;;;;;;20.20;15.40;;;;;;;;;;5092493;28;20450;-76
2024/01/18 08:02:02;;;;;;;19.00;14.43;;;;;;;;;;5091674;28;20474;-76
2024/01/18 08:04:32;;;;;;;24.88;16.00;;;;;;;;;;5092011;28;20497;-76
2024/01/18 08:06:58;;;;;;;21.50;17.52;;;;;;;;;;5091390;28;20235;-76
2024/01/18 08:09:26;;;;;;;26.67;15.27;;;;;;;;;;5092213;28;20229;-76
2024/01/18 08:11:53;;;;;;;19.67;15.23;;;;;;;;;;5091922;28;20244;-75
2024/01/18 08:14:19;;;;;;;18.95;14.75;;;;;;;;;;5091450;28;20251;-76
2024/01/18 08:16:46;;;;;;;21.63;15.83;;;;;;;;;;5091715;28;20258;-76
2024/01/18 08:19:12;;;;;;;15.83;13.17;;;;;;;;;;5090548;28;20454;-76
2024/01/18 08:21:43;;;;;;;21.70;15.00;;;;;;;;;;5091784;28;20502;-76
2024/01/18 08:24:09;;;;;;;26.63;14.03;;;;;;;;;;5091797;28;20419;-76
2024/01/18 08:26:37;;;;;;;20.87;14.30;;;;;;;;;;5089591;28;20486;-76
2024/01/18 08:29:04;;;;;;;21.88;14.82;;;;;;;;;;5092175;28;20414;-76
2024/01/18 08:31:30;;;;;;;23.80;15.00;;;;;;;;;;5091288;28;20260;-76
2024/01/18 08:33:57;;;;;;;20.57;14.00;;;;;;;;;;5091559;28;20853;-77
2024/01/18 08:36:23;;;;;;;17.00;14.53;;;;;;;;;;5091308;28;20490;-76
2024/01/18 08:38:50;;;;;;;19.63;13.63;;;;;;;;;;5091413;28;20443;-76
2024/01/18 08:41:17;;;;;;;20.43;14.00;;;;;;;;;;5090544;28;20534;-76
2024/01/18 08:43:45;;;;;;;15.90;12.15;;;;;;;;;;5091837;28;20478;-76
2024/01/18 08:46:11;;;;;;;21.83;14.63;;;;;;;;;;5091802;28;20262;-76
2024/01/18 08:48:38;;;;;;;20.20;13.63;;;;;;;;;;5091543;28;20446;-76
2024/01/18 08:51:04;;;;;;;17.33;12.67;;;;;;;;;;5090868;28;20494;-76
2024/01/18 08:53:31;;;;;;;19.63;13.53;;;;;;;;;;5091022;28;20450;-76
2024/01/18 08:55:58;;;;;;;21.07;13.30;;;;;;;;;;5091084;28;20490;-75
2024/01/18 08:58:24;;;;;;;18.53;12.20;;;;;;;;;;5090567;28;20478;-76
2024/01/18 09:00:53;;;;;;;14.27;11.40;;;;;;;;;;5090350;28;20501;-77
2024/01/18 09:03:19;;;;;;;20.53;13.43;;;;;;;;;;5091304;28;20570;-75
2024/01/18 09:05:46;;;;;;;18.60;13.80;;;;;;;;;;5090396;28;20487;-76
2024/01/18 09:08:13;;;;;;;19.07;11.73;;;;;;;;;;5090779;28;20479;-76
2024/01/18 09:10:40;;;;;;;19.40;12.23;;;;;;;;;;5089255;28;20526;-76
2024/01/18 09:13:07;;;;;;;17.40;12.63;;;;;;;;;;5089795;28;20446;-76
2024/01/18 09:15:35;;;;;;;17.73;12.20;;;;;;;;;;5090741;28;20484;-76
2024/01/18 09:18:03;;;;;;;19.33;12.30;;;;;;;;;;5090908;28;20447;-76
2024/01/18 09:20:29;;;;;;;17.23;13.13;;;;;;;;;;5090703;28;20467;-76
2024/01/18 09:22:57;;;;;;;18.90;12.60;;;;;;;;;;5090190;28;20514;-76
2024/01/18 09:25:23;;;;;;;26.10;15.07;;;;;;;;;;5090526;28;20467;-76
2024/01/18 09:27:50;;;;;;;19.00;12.07;;;;;;;;;;5089290;28;20545;-76
2024/01/18 09:30:16;;;;;;;19.13;13.00;;;;;;;;;;5089825;28;20482;-77
2024/01/18 09:32:44;;;;;;;18.03;15.27;;;;;;;;;;5089326;28;20447;-77
2024/01/18 09:35:13;;;;;;;26.50;13.97;;;;;;;;;;5090239;28;20469;-76
2024/01/18 09:37:39;;;;;;;22.70;15.23;;;;;;;;;;5090169;28;20455;-76
2024/01/18 09:40:09;;;;;;;17.50;13.00;;;;;;;;;;5089771;28;20902;-76
2024/01/18 09:42:36;;;;;;;21.33;13.50;;;;;;;;;;5090195;28;20475;-77
2024/01/18 09:45:08;;;;;;;16.77;12.30;;;;;;;;;;5089543;28;20486;-77
2024/01/18 09:47:36;;;;;;;14.50;11.47;;;;;;;;;;5089764;28;20455;-77
2024/01/18 09:50:03;;;;;;;24.17;13.10;;;;;;;;;;5086616;28;20530;-76
2024/01/18 09:52:31;;;;;;;16.23;11.57;;;;;;;;;;5088518;28;20449;-76
2024/01/18 09:54:57;;;;;;;16.10;11.70;;;;;;;;;;5088137;28;20478;-77
2024/01/18 09:57:30;;;;;;;15.07;10.87;;;;;;;;;;5088469;28;20443;-76
2024/01/18 09:59:59;;;;;;;16.90;11.37;;;;;;;;;;5088117;28;20457;-76
2024/01/18 10:02:25;;;;;;;16.33;10.73;;;;;;;;;;5086756;28;20504;-76
2024/01/18 10:04:53;;;;;;;20.93;12.77;;;;;;;;;;5087724;28;20537;-77
2024/01/18 10:07:20;;;;;;;19.93;11.63;;;;;;;;;;5087151;28;20462;-77
2024/01/18 10:09:48;;;;;;;18.83;11.60;;;;;;;;;;5085778;28;20515;-77
2024/01/18 10:12:15;;;;;;;17.63;11.47;;;;;;;;;;5087015;28;20503;-77
2024/01/18 10:14:42;;;;;;;20.90;11.00;;;;;;;;;;5087225;28;20538;-77
2024/01/18 10:17:09;;;;;;;20.20;13.00;;;;;;;;;;5087902;28;20471;-77
2024/01/18 10:19:35;;;;;;;18.30;11.50;;;;;;;;;;5087375;28;20470;-76
2024/01/18 10:22:02;;;;;;;14.67;10.00;;;;;;;;;;5087202;28;20513;-77
2024/01/18 10:24:38;;;;;;;15.20;11.47;;;;;;;;;;5086997;28;20483;-77
2024/01/18 10:27:06;;;;;;;14.90;10.30;;;;;;;;;;5086474;28;20525;-77
2024/01/18 10:29:35;;;;;;;13.80;9.90;;;;;;;;;;5087448;28;20446;-76
2024/01/18 10:32:03;;;;;;;19.30;10.40;;;;;;;;;;5087600;28;20447;-78
2024/01/18 10:34:34;;;;;;;13.40;10.43;;;;;;;;;;5086080;28;20455;-77
2024/01/18 10:37:03;;;;;;;17.80;11.23;;;;;;;;;;5081801;28;20486;-77
2024/01/18 10:39:39;;;;;;;17.73;10.60;;;;;;;;;;5086927;28;20439;-77
2024/01/18 10:42:07;;;;;;;14.53;10.20;;;;;;;;;;5085611;28;20580;-77
2024/01/18 10:44:34;;;;;;;15.30;10.07;;;;;;;;;;5088454;28;20833;-77
2024/01/18 10:47:07;;;;;;;15.53;10.00;;;;;;;;;;5087063;28;20481;-77
2024/01/18 10:49:34;;;;;;;20.53;10.23;;;;;;;;;;5088200;28;20835;-78
2024/01/18 10:52:01;;;;;;;13.40;9.93;;;;;;;;;;5088452;28;20478;-77
2024/01/18 10:54:28;;;;;;;10.43;8.50;;;;;;;;;;5087168;28;20498;-77
2024/01/18 10:56:54;;;;;;;12.17;9.20;;;;;;;;;;5087751;28;20886;-77
2024/01/18 10:59:22;;;;;;;14.83;9.03;;;;;;;;;;5087784;28;20463;-77
2024/01/18 11:01:49;;;;;;;12.43;8.47;;;;;;;;;;5087264;28;20534;-77
2024/01/18 11:04:18;;;;;;;16.37;9.00;;;;;;;;;;5087506;28;20510;-77
2024/01/18 11:06:45;;;;;;;11.93;8.50;;;;;;;;;;5085991;28;20470;-77
2024/01/18 11:09:13;;;;;;;16.13;8.23;;;;;;;;;;5087990;28;20439;-77
2024/01/18 11:11:40;;;;;;;15.40;8.10;;;;;;;;;;5087312;28;20528;-77
2024/01/18 11:14:08;;;;;;;12.90;7.87;;;;;;;;;;5087766;28;20427;-77
2024/01/18 11:16:38;;;;;;;12.93;9.00;;;;;;;;;;5086797;28;20481;-77
2024/01/18 11:19:04;;;;;;;9.40;6.97;;;;;;;;;;5086746;28;20497;-77
2024/01/18 11:21:38;;;;;;;15.07;6.80;;;;;;;;;;5086126;28;20537;-77
2024/01/18 11:24:08;;;;;;;13.70;7.47;;;;;;;;;;5090051;28;20531;-78
2024/01/18 11:26:34;;;;;;;7.90;6.57;;;;;;;;;;5089811;28;20527;-77
2024/01/18 11:29:16;;;;;;;8.60;6.20;;;;;;;;;;5089873;28;20427;-78
2024/01/18 11:31:49;;;;;;;8.37;5.87;;;;;;;;;;5089400;28;20474;-78
2024/01/18 11:34:37;;;;;;;7.23;6.20;;;;;;;;;;5090537;28;20459;-77
2024/01/18 11:37:11;;;;;;;9.20;6.20;;;;;;;;;;5087157;28;20461;-77
2024/01/18 11:39:56;;;;;;;6.60;5.07;;;;;;;;;;5090150;28;20439;-77
2024/01/18 11:42:24;;;;;;;5.27;4.70;;;;;;;;;;5070162;28;20551;-78
2024/01/18 11:44:51;;;;;;;7.10;5.80;;;;;;;;;;5069628;28;20483;-79
2024/01/18 11:47:19;;;;;;;10.33;4.50;;;;;;;;;;5069079;28;20503;-77
2024/01/18 11:49:47;;;;;;;5.23;4.40;;;;;;;;;;5069327;28;20515;-78
2024/01/18 11:52:14;;;;;;;5.50;4.50;;;;;;;;;;5070033;28;20520;-78
2024/01/18 11:54:43;;;;;;;5.00;3.97;;;;;;;;;;5068382;28;20468;-78
2024/01/18 11:57:13;;;;;;;3.40;3.20;;;;;;;;;;5069677;28;20475;-78
2024/01/18 11:59:41;;;;;;;3.10;2.70;;;;;;;;;;5068696;28;20444;-77
2024/01/18 12:02:09;;;;;;;8.07;3.40;;;;;;;;;;5069527;28;20447;-78
2024/01/18 12:04:37;;;;;;;4.63;3.40;;;;;;;;;;5069110;28;20464;-77
2024/01/18 12:07:04;;;;;;;5.63;3.43;;;;;;;;;;5069085;28;20854;-78
2024/01/18 12:09:30;;;;;;;2.73;2.50;;;;;;;;;;5069537;28;20440;-78
2024/01/18 12:11:59;;;;;;;6.60;2.30;;;;;;;;;;5068726;28;20522;-78
2024/01/18 12:14:25;;;;;;;3.17;2.50;;;;;;;;;;5068552;28;20463;-78
2024/01/18 12:16:53;;;;;;;1.97;1.40;;;;;;;;;;5068532;28;20496;-78
2024/01/18 12:19:29;;;;;;;5.93;2.70;;;;;;;;;;5069040;28;20504;-78
2024/01/18 12:22:00;;;;;;;2.50;1.70;;;;;;;;;;5068881;28;20487;-78
2024/01/18 12:24:27;;;;;;;3.60;1.50;;;;;;;;;;5069177;28;20540;-78
2024/01/18 12:26:54;;;;;;;1.70;1.60;;;;;;;;;;5067597;28;20555;-79
2024/01/18 12:29:22;;;;;;;2.13;1.33;;;;;;;;;;5068969;28;20887;-78
2024/01/18 12:31:48;;;;;;;3.47;1.60;;;;;;;;;;5068883;28;20460;-77
2024/01/18 12:34:15;;;;;;;2.27;1.33;;;;;;;;;;5068277;28;20475;-77
2024/01/18 12:36:43;;;;;;;3.50;1.67;;;;;;;;;;5068384;28;20559;-77
2024/01/18 12:39:11;;;;;;;2.47;1.40;;;;;;;;;;5068156;28;20448;-79
2024/01/18 12:41:37;;;;;;;1.40;1.30;;;;;;;;;;5067369;28;20540;-79
2024/01/18 12:44:07;;;;;;;1.87;1.27;;;;;;;;;;5067529;28;20510;-81
2024/01/18 12:46:34;;;;;;;3.13;1.20;;;;;;;;;;5066326;28;20468;-79
2024/01/18 12:49:01;;;;;;;1.37;1.27;;;;;;;;;;5065495;28;20542;-79
2024/01/18 12:51:27;;;;;;;1.33;1.20;;;;;;;;;;5066156;28;20846;-79
2024/01/18 12:53:54;;;;;;;1.53;1.43;;;;;;;;;;5067565;28;20499;-78
2024/01/18 12:56:24;;;;;;;1.30;1.13;;;;;;;;;;5066219;28;20463;-78
2024/01/18 12:58:50;;;;;;;2.97;1.20;;;;;;;;;;5067728;28;20475;-78
2024/01/18 13:01:27;;;;;;;1.47;0.93;;;;;;;;;;5066913;28;20883;-78
2024/01/18 13:04:08;;;;;;;1.57;1.40;;;;;;;;;;5067126;28;20490;-78
2024/01/18 13:06:35;;;;;;;0.80;0.80;;;;;;;;;;5066693;28;20471;-78
2024/01/18 13:09:04;;;;;;;1.10;0.60;;;;;;;;;;5065913;28;20471;-79
2024/01/18 13:11:33;;;;;;;7.30;1.17;;;;;;;;;;5063500;28;21019;-79
2024/01/18 13:14:00;;;;;;;1.60;0.93;;;;;;;;;;5065836;28;20440;-79
2024/01/18 13:16:27;;;;;;;1.13;0.90;;;;;;;;;;5065862;28;20464;-79
2024/01/18 13:18:59;;;;;;;1.60;0.77;;;;;;;;;;5065328;28;20511;-80
2024/01/18 13:21:25;;;;;;;0.87;0.87;;;;;;;;;;5065973;28;20494;-79
2024/01/18 13:23:52;;;;;;;0.73;0.70;;;;;;;;;;5065215;28;20582;-79
2024/01/18 13:26:19;;;;;;;1.67;1.50;;;;;;;;;;5063566;28;20472;-80
2024/01/18 13:28:46;;;;;;;3.20;1.57;;;;;;;;;;5066261;28;20446;-78
2024/01/18 13:31:13;;;;;;;1.80;1.27;;;;;;;;;;5065037;28;20475;-79
2024/01/18 13:33:40;;;;;;;2.30;0.93;;;;;;;;;;5065621;28;20503;-79
2024/01/18 13:36:06;;;;;;;1.00;0.90;;;;;;;;;;5064222;28;20486;-79
2024/01/18 13:38:33;;;;;;;1.23;1.13;;;;;;;;;;5064185;28;20511;-79
2024/01/18 13:41:00;;;;;;;2.60;1.20;;;;;;;;;;5063370;28;20501;-79
2024/01/18 13:43:27;;;;;;;4.80;2.00;;;;;;;;;;5063970;28;20547;-79
2024/01/18 13:45:56;;;;;;;1.30;1.20;;;;;;;;;;5062789;28;20540;-79
2024/01/18 13:48:22;;;;;;;3.17;1.60;;;;;;;;;;5064199;28;20452;-80
2024/01/18 13:50:49;;;;;;;1.87;1.50;;;;;;;;;;5063660;28;20535;-79
2024/01/18 13:53:18;;;;;;;2.20;1.87;;;;;;;;;;5065891;28;20516;-80
2024/01/18 13:55:45;;;;;;;1.53;1.43;;;;;;;;;;5065465;28;20467;-79
2024/01/18 13:58:13;;;;;;;3.20;1.97;;;;;;;;;;5065238;28;20512;-80
2024/01/18 14:00:39;;;;;;;1.70;1.40;;;;;;;;;;5065740;28;20535;-80
2024/01/18 14:03:10;;;;;;;2.20;1.40;;;;;;;;;;5065932;28;20546;-78
2024/01/18 14:05:37;;;;;;;1.77;1.40;;;;;;;;;;5064795;28;20881;-79
2024/01/18 14:08:07;;;;;;;3.33;1.60;;;;;;;;;;5065447;28;20894;-79
2024/01/18 14:10:34;;;;;;;1.80;1.63;;;;;;;;;;5065998;28;20474;-79
2024/01/18 14:13:02;;;;;;;2.60;1.50;;;;;;;;;;5065021;28;20451;-78
2024/01/18 14:15:28;;;;;;;1.93;1.27;;;;;;;;;;5066123;28;20906;-78
2024/01/18 14:17:55;;;;;;;2.23;1.70;;;;;;;;;;5065936;28;20454;-78
2024/01/18 14:20:23;;;;;;;2.83;1.70;;;;;;;;;;5065273;28;20558;-78
2024/01/18 14:22:50;;;;;;;1.40;1.23;;;;;;;;;;5066353;28;21017;-78
2024/01/18 14:25:16;;;;;;;3.23;1.63;;;;;;;;;;5065996;28;20492;-78